sensor_id;sensor_type;location;lat;lon;timestamp;pressure;altitude;pressure_sealevel;temperature;humidity
70841;BME280;58465;51.534;9.934;2022-10-16T00:01:36;99558.66;;;15.77;86.07
70841;BME280;58465;51.534;9.934;2022-10-16T00:04:02;99561.22;;;15.80;86.30
70841;BME280;58465;51.534;9.934;2022-10-16T00:06:28;99562.69;;;15.86;86.00
70841;BME280;58465;51.534;9.934;2022-10-16T00:08:54;99565.16;;;15.90;85.47
70841;BME280;58465;51.534;9.934;2022-10-16T00:11:28;99567.63;;;15.95;85.54
70841;BME280;58465;51.534;9.934;2022-10-16T00:13:58;99578.00;;;16.03;84.91
70841;BME280;58465;51.534;9.934;2022-10-16T00:16:25;99585.16;;;16.04;84.51
70841;BME280;58465;51.534;9.934;2022-10-16T00:18:50;99599.38;;;16.06;84.58
70841;BME280;58465;51.534;9.934;2022-10-16T00:21:21;99589.41;;;16.08;84.33
70841;BME280;58465;51.534;9.934;2022-10-16T00:23:50;99588.53;;;16.07;84.11
70841;BME280;58465;51.534;9.934;2022-10-16T00:26:17;99586.00;;;16.04;83.94
70841;BME280;58465;51.534;9.934;2022-10-16T00:28:46;99580.78;;;16.01;84.22
70841;BME280;58465;51.534;9.934;2022-10-16T00:31:12;99593.38;;;16.01;84.44
70841;BME280;58465;51.534;9.934;2022-10-16T00:33:39;99588.00;;;16.01;84.46
70841;BME280;58465;51.534;9.934;2022-10-16T00:36:05;99591.41;;;16.04;84.23
70841;BME280;58465;51.534;9.934;2022-10-16T00:38:31;99595.03;;;16.03;84.26
70841;BME280;58465;51.534;9.934;2022-10-16T00:40:57;99593.22;;;16.04;84.23
70841;BME280;58465;51.534;9.934;2022-10-16T00:43:48;99600.25;;;16.06;84.17
70841;BME280;58465;51.534;9.934;2022-10-16T00:46:17;99588.53;;;16.07;83.42
70841;BME280;58465;51.534;9.934;2022-10-16T00:48:51;99596.53;;;16.09;83.35
70841;BME280;58465;51.534;9.934;2022-10-16T00:51:19;99587.56;;;16.08;83.53
70841;BME280;58465;51.534;9.934;2022-10-16T00:53:46;99584.88;;;16.08;83.50
70841;BME280;58465;51.534;9.934;2022-10-16T00:56:11;99586.97;;;16.03;83.67
70841;BME280;58465;51.534;9.934;2022-10-16T00:58:36;99581.72;;;16.00;83.81
70841;BME280;58465;51.534;9.934;2022-10-16T01:01:02;99581.72;;;16.00;83.76
70841;BME280;58465;51.534;9.934;2022-10-16T01:03:30;99573.78;;;15.97;83.85
70841;BME280;58465;51.534;9.934;2022-10-16T01:09:08;99585.63;;;15.94;83.92
70841;BME280;58465;51.534;9.934;2022-10-16T01:14:30;99590.81;;;15.98;83.56
70841;BME280;58465;51.534;9.934;2022-10-16T01:17:02;99586.38;;;15.96;83.56
70841;BME280;58465;51.534;9.934;2022-10-16T01:19:50;99591.00;;;15.94;83.58
70841;BME280;58465;51.534;9.934;2022-10-16T01:22:20;99604.63;;;15.91;83.84
70841;BME280;58465;51.534;9.934;2022-10-16T01:24:49;99602.00;;;15.90;83.73
70841;BME280;58465;51.534;9.934;2022-10-16T01:27:22;99602.88;;;15.90;83.90
70841;BME280;58465;51.534;9.934;2022-10-16T01:29:53;99604.69;;;15.90;83.79
70841;BME280;58465;51.534;9.934;2022-10-16T01:32:26;99593.31;;;15.85;83.86
70841;BME280;58465;51.534;9.934;2022-10-16T01:34:59;99606.13;;;15.80;84.09
70841;BME280;58465;51.534;9.934;2022-10-16T01:37:40;99617.69;;;15.82;84.34
70841;BME280;58465;51.534;9.934;2022-10-16T01:40:13;99620.44;;;15.80;84.34
70841;BME280;58465;51.534;9.934;2022-10-16T01:42:44;99608.72;;;15.81;84.29
70841;BME280;58465;51.534;9.934;2022-10-16T01:45:14;99602.47;;;15.81;84.35
70841;BME280;58465;51.534;9.934;2022-10-16T01:47:41;99604.28;;;15.80;84.42
70841;BME280;58465;51.534;9.934;2022-10-16T01:50:08;99608.81;;;15.80;84.38
70841;BME280;58465;51.534;9.934;2022-10-16T01:52:37;99605.38;;;15.76;84.24
70841;BME280;58465;51.534;9.934;2022-10-16T01:55:06;99610.16;;;15.71;84.75
70841;BME280;58465;51.534;9.934;2022-10-16T01:57:34;99608.53;;;15.67;84.87
70841;BME280;58465;51.534;9.934;2022-10-16T02:00:05;99615.84;;;15.65;84.89
70841;BME280;58465;51.534;9.934;2022-10-16T02:02:33;99611.56;;;15.61;84.84
70841;BME280;58465;51.534;9.934;2022-10-16T02:05:05;99617.25;;;15.55;84.85
70841;BME280;58465;51.534;9.934;2022-10-16T02:07:36;99613.88;;;15.50;84.98
70841;BME280;58465;51.534;9.934;2022-10-16T02:10:01;99608.06;;;15.40;85.06
70841;BME280;58465;51.534;9.934;2022-10-16T02:12:33;99615.34;;;15.38;85.44
70841;BME280;58465;51.534;9.934;2022-10-16T02:14:59;99622.63;;;15.36;85.55
70841;BME280;58465;51.534;9.934;2022-10-16T02:17:25;99624.44;;;15.36;85.84
70841;BME280;58465;51.534;9.934;2022-10-16T02:19:52;99621.03;;;15.32;85.90
70841;BME280;58465;51.534;9.934;2022-10-16T02:22:28;99625.31;;;15.36;86.16
70841;BME280;58465;51.534;9.934;2022-10-16T02:25:04;99623.34;;;15.40;85.79
70841;BME280;58465;51.534;9.934;2022-10-16T02:27:46;99634.16;;;15.38;85.53
70841;BME280;58465;51.534;9.934;2022-10-16T02:32:46;99631.06;;;15.29;85.72
70841;BME280;58465;51.534;9.934;2022-10-16T02:35:13;99635.59;;;15.28;85.94
70841;BME280;58465;51.534;9.934;2022-10-16T02:37:40;99648.81;;;15.33;86.12
70841;BME280;58465;51.534;9.934;2022-10-16T02:40:07;99647.78;;;15.35;86.06
70841;BME280;58465;51.534;9.934;2022-10-16T02:42:36;99639.47;;;15.40;85.95
70841;BME280;58465;51.534;9.934;2022-10-16T02:45:03;99634.84;;;15.43;85.69
70841;BME280;58465;51.534;9.934;2022-10-16T02:47:29;99627.69;;;15.42;85.72
70841;BME280;58465;51.534;9.934;2022-10-16T02:49:54;99630.25;;;15.45;85.68
70841;BME280;58465;51.534;9.934;2022-10-16T02:52:19;99619.56;;;15.44;85.62
70841;BME280;58465;51.534;9.934;2022-10-16T02:54:44;99637.22;;;15.49;85.44
70841;BME280;58465;51.534;9.934;2022-10-16T02:57:10;99637.13;;;15.51;85.62
70841;BME280;58465;51.534;9.934;2022-10-16T02:59:35;99636.03;;;15.56;85.48
70841;BME280;58465;51.534;9.934;2022-10-16T03:02:00;99632.34;;;15.57;85.23
70841;BME280;58465;51.534;9.934;2022-10-16T03:04:26;99634.28;;;15.55;85.12
70841;BME280;58465;51.534;9.934;2022-10-16T03:06:51;99626.19;;;15.55;84.98
70841;BME280;58465;51.534;9.934;2022-10-16T03:09:16;99630.72;;;15.55;84.99
70841;BME280;58465;51.534;9.934;2022-10-16T03:11:41;99629.84;;;15.54;84.85
70841;BME280;58465;51.534;9.934;2022-10-16T03:14:07;99639.84;;;15.51;84.89
70841;BME280;58465;51.534;9.934;2022-10-16T03:16:32;99626.19;;;15.37;84.89
70841;BME280;58465;51.534;9.934;2022-10-16T03:18:57;99645.97;;;15.36;85.40
70841;BME280;58465;51.534;9.934;2022-10-16T03:21:23;99642.47;;;15.34;85.61
70841;BME280;58465;51.534;9.934;2022-10-16T03:23:48;99634.63;;;15.29;85.55
70841;BME280;58465;51.534;9.934;2022-10-16T03:26:13;99634.03;;;15.22;85.83
70841;BME280;58465;51.534;9.934;2022-10-16T03:28:39;99645.25;;;15.13;85.87
70841;BME280;58465;51.534;9.934;2022-10-16T03:31:04;99646.50;;;15.06;86.05
70841;BME280;58465;51.534;9.934;2022-10-16T03:33:29;99659.25;;;15.01;86.16
70841;BME280;58465;51.534;9.934;2022-10-16T03:35:55;99664.06;;;14.95;86.27
70841;BME280;58465;51.534;9.934;2022-10-16T03:38:21;99670.69;;;14.88;86.86
70841;BME280;58465;51.534;9.934;2022-10-16T03:40:47;99673.63;;;14.81;86.75
70841;BME280;58465;51.534;9.934;2022-10-16T03:43:12;99679.44;;;14.72;87.10
70841;BME280;58465;51.534;9.934;2022-10-16T03:45:37;99679.66;;;14.68;87.77
70841;BME280;58465;51.534;9.934;2022-10-16T03:48:03;99690.34;;;14.69;87.85
70841;BME280;58465;51.534;9.934;2022-10-16T03:50:29;99684.97;;;14.69;87.93
70841;BME280;58465;51.534;9.934;2022-10-16T03:52:54;99682.41;;;14.66;87.73
70841;BME280;58465;51.534;9.934;2022-10-16T03:55:19;99679.03;;;14.61;87.74
70841;BME280;58465;51.534;9.934;2022-10-16T03:57:44;99675.88;;;14.52;87.68
70841;BME280;58465;51.534;9.934;2022-10-16T04:00:10;99674.34;;;14.46;87.94
70841;BME280;58465;51.534;9.934;2022-10-16T04:02:36;99683.72;;;14.36;87.92
70841;BME280;58465;51.534;9.934;2022-10-16T04:05:01;99675.41;;;14.22;88.05
70841;BME280;58465;51.534;9.934;2022-10-16T04:07:27;99676.56;;;14.15;88.86
70841;BME280;58465;51.534;9.934;2022-10-16T04:09:52;99692.16;;;14.06;89.28
70841;BME280;58465;51.534;9.934;2022-10-16T04:12:18;99687.09;;;13.99;89.38
70841;BME280;58465;51.534;9.934;2022-10-16T04:14:43;99689.03;;;13.95;89.91
70841;BME280;58465;51.534;9.934;2022-10-16T04:17:08;99700.22;;;14.06;90.54
70841;BME280;58465;51.534;9.934;2022-10-16T04:19:34;99697.41;;;14.09;90.35
70841;BME280;58465;51.534;9.934;2022-10-16T04:21:59;99695.91;;;14.23;90.34
70841;BME280;58465;51.534;9.934;2022-10-16T04:24:24;99695.69;;;14.29;90.05
70841;BME280;58465;51.534;9.934;2022-10-16T04:26:50;99707.25;;;14.31;89.54
70841;BME280;58465;51.534;9.934;2022-10-16T04:29:15;99695.56;;;14.32;89.60
70841;BME280;58465;51.534;9.934;2022-10-16T04:31:40;99709.00;;;14.32;89.05
70841;BME280;58465;51.534;9.934;2022-10-16T04:34:05;99706.53;;;14.26;89.07
70841;BME280;58465;51.534;9.934;2022-10-16T04:36:31;99701.28;;;14.23;89.07
70841;BME280;58465;51.534;9.934;2022-10-16T04:38:56;99693.97;;;14.26;89.24
70841;BME280;58465;51.534;9.934;2022-10-16T04:41:21;99688.81;;;14.22;89.27
70841;BME280;58465;51.534;9.934;2022-10-16T04:43:47;99699.41;;;14.25;89.51
70841;BME280;58465;51.534;9.934;2022-10-16T04:46:12;99698.44;;;14.27;89.15
70841;BME280;58465;51.534;9.934;2022-10-16T04:48:37;99696.56;;;14.29;88.87
70841;BME280;58465;51.534;9.934;2022-10-16T04:51:03;99694.53;;;14.34;88.69
70841;BME280;58465;51.534;9.934;2022-10-16T04:53:28;99705.94;;;14.41;88.80
70841;BME280;58465;51.534;9.934;2022-10-16T04:55:53;99710.22;;;14.45;88.54
70841;BME280;58465;51.534;9.934;2022-10-16T04:58:19;99706.41;;;14.51;88.55
70841;BME280;58465;51.534;9.934;2022-10-16T05:00:45;99699.13;;;14.53;88.06
70841;BME280;58465;51.534;9.934;2022-10-16T05:03:12;99704.19;;;14.60;87.25
70841;BME280;58465;51.534;9.934;2022-10-16T05:05:42;99697.59;;;14.67;86.25
70841;BME280;58465;51.534;9.934;2022-10-16T05:08:07;99692.88;;;14.72;85.21
70841;BME280;58465;51.534;9.934;2022-10-16T05:10:33;99685.59;;;14.74;85.24
70841;BME280;58465;51.534;9.934;2022-10-16T05:12:58;99690.03;;;14.75;84.75
70841;BME280;58465;51.534;9.934;2022-10-16T05:15:23;99692.59;;;14.78;84.60
70841;BME280;58465;51.534;9.934;2022-10-16T05:17:54;99693.31;;;14.82;84.23
70841;BME280;58465;51.534;9.934;2022-10-16T05:20:21;99685.19;;;14.83;83.86
70841;BME280;58465;51.534;9.934;2022-10-16T05:22:47;99680.63;;;14.85;83.43
70841;BME280;58465;51.534;9.934;2022-10-16T05:25:12;99687.63;;;14.90;83.40
70841;BME280;58465;51.534;9.934;2022-10-16T05:27:37;99676.75;;;14.91;83.13
70841;BME280;58465;51.534;9.934;2022-10-16T05:30:03;99676.69;;;14.93;82.80
70841;BME280;58465;51.534;9.934;2022-10-16T05:32:28;99676.69;;;14.93;82.68
70841;BME280;58465;51.534;9.934;2022-10-16T05:34:54;99686.66;;;14.91;82.41
70841;BME280;58465;51.534;9.934;2022-10-16T05:37:19;99700.19;;;14.89;82.64
70841;BME280;58465;51.534;9.934;2022-10-16T05:39:44;99706.63;;;14.85;82.59
70841;BME280;58465;51.534;9.934;2022-10-16T05:42:10;99715.88;;;14.79;83.17
70841;BME280;58465;51.534;9.934;2022-10-16T05:44:35;99708.88;;;14.75;83.45
70841;BME280;58465;51.534;9.934;2022-10-16T05:47:00;99716.00;;;14.76;83.50
70841;BME280;58465;51.534;9.934;2022-10-16T05:49:26;99713.00;;;14.82;82.66
70841;BME280;58465;51.534;9.934;2022-10-16T05:51:52;99717.25;;;14.88;82.46
70841;BME280;58465;51.534;9.934;2022-10-16T05:54:17;99734.28;;;14.89;82.46
70841;BME280;58465;51.534;9.934;2022-10-16T05:56:43;99740.31;;;14.94;82.38
70841;BME280;58465;51.534;9.934;2022-10-16T05:59:08;99744.88;;;14.92;82.35
70841;BME280;58465;51.534;9.934;2022-10-16T06:01:33;99755.63;;;14.92;82.27
70841;BME280;58465;51.534;9.934;2022-10-16T06:03:59;99764.63;;;14.91;82.16
70841;BME280;58465;51.534;9.934;2022-10-16T06:06:26;99769.06;;;14.92;82.36
70841;BME280;58465;51.534;9.934;2022-10-16T06:08:52;99765.50;;;14.91;82.17
70841;BME280;58465;51.534;9.934;2022-10-16T06:11:20;99781.63;;;14.91;82.09
70841;BME280;58465;51.534;9.934;2022-10-16T06:13:53;99777.00;;;14.95;81.94
70841;BME280;58465;51.534;9.934;2022-10-16T06:16:20;99771.50;;;14.98;81.65
70841;BME280;58465;51.534;9.934;2022-10-16T06:18:46;99781.16;;;15.02;81.57
70841;BME280;58465;51.534;9.934;2022-10-16T06:21:17;99778.22;;;15.08;81.23
70841;BME280;58465;51.534;9.934;2022-10-16T06:23:42;99779.69;;;15.15;81.25
70841;BME280;58465;51.534;9.934;2022-10-16T06:26:10;99789.28;;;15.20;80.90
70841;BME280;58465;51.534;9.934;2022-10-16T06:28:36;99796.06;;;15.29;80.87
70841;BME280;58465;51.534;9.934;2022-10-16T06:31:03;99795.56;;;15.40;80.13
70841;BME280;58465;51.534;9.934;2022-10-16T06:33:28;99794.44;;;15.45;79.75
70841;BME280;58465;51.534;9.934;2022-10-16T06:36:00;99800.44;;;15.50;79.23
70841;BME280;58465;51.534;9.934;2022-10-16T06:38:26;99801.22;;;15.54;79.14
70841;BME280;58465;51.534;9.934;2022-10-16T06:40:53;99811.63;;;15.62;79.16
70841;BME280;58465;51.534;9.934;2022-10-16T06:43:18;99820.50;;;15.64;78.74
70841;BME280;58465;51.534;9.934;2022-10-16T06:45:50;99821.22;;;15.67;78.66
70841;BME280;58465;51.534;9.934;2022-10-16T06:48:16;99826.78;;;15.64;78.28
70841;BME280;58465;51.534;9.934;2022-10-16T06:50:41;99825.38;;;15.55;78.70
70841;BME280;58465;51.534;9.934;2022-10-16T06:53:06;99832.75;;;15.50;78.79
70841;BME280;58465;51.534;9.934;2022-10-16T06:55:31;99840.88;;;15.49;78.90
70841;BME280;58465;51.534;9.934;2022-10-16T06:57:57;99849.06;;;15.47;79.06
70841;BME280;58465;51.534;9.934;2022-10-16T07:00:22;99853.47;;;15.48;79.07
70841;BME280;58465;51.534;9.934;2022-10-16T07:02:47;99848.31;;;15.44;79.19
70841;BME280;58465;51.534;9.934;2022-10-16T07:05:13;99854.06;;;15.36;79.57
70841;BME280;58465;51.534;9.934;2022-10-16T07:07:38;99865.13;;;15.29;79.80
70841;BME280;58465;51.534;9.934;2022-10-16T07:10:03;99863.59;;;15.23;80.33
70841;BME280;58465;51.534;9.934;2022-10-16T07:12:29;99861.03;;;15.20;80.54
70841;BME280;58465;51.534;9.934;2022-10-16T07:14:54;99855.94;;;15.34;80.43
70841;BME280;58465;51.534;9.934;2022-10-16T07:17:21;99860.59;;;15.49;79.72
70841;BME280;58465;51.534;9.934;2022-10-16T07:19:46;99868.16;;;15.62;78.95
70841;BME280;58465;51.534;9.934;2022-10-16T07:22:11;99870.66;;;15.66;78.77
70841;BME280;58465;51.534;9.934;2022-10-16T07:24:37;99877.50;;;15.73;78.50
70841;BME280;58465;51.534;9.934;2022-10-16T07:27:02;99883.47;;;15.80;78.17
70841;BME280;58465;51.534;9.934;2022-10-16T07:29:28;99884.91;;;15.87;78.02
70841;BME280;58465;51.534;9.934;2022-10-16T07:31:53;99900.81;;;15.93;78.04
70841;BME280;58465;51.534;9.934;2022-10-16T07:34:19;99903.50;;;15.93;77.36
70841;BME280;58465;51.534;9.934;2022-10-16T07:36:47;99900.13;;;15.88;77.53
70841;BME280;58465;51.534;9.934;2022-10-16T07:39:13;99909.16;;;15.87;77.18
70841;BME280;58465;51.534;9.934;2022-10-16T07:41:39;99903.78;;;15.87;76.83
70841;BME280;58465;51.534;9.934;2022-10-16T07:44:04;99904.66;;;15.87;76.14
70841;BME280;58465;51.534;9.934;2022-10-16T07:46:31;99895.84;;;15.84;75.82
70841;BME280;58465;51.534;9.934;2022-10-16T07:48:58;99909.47;;;15.81;75.53
70841;BME280;58465;51.534;9.934;2022-10-16T07:51:24;99917.91;;;15.73;74.71
70841;BME280;58465;51.534;9.934;2022-10-16T07:53:51;99911.22;;;15.82;74.70
70841;BME280;58465;51.534;9.934;2022-10-16T07:56:17;99915.28;;;15.90;74.52
70841;BME280;58465;51.534;9.934;2022-10-16T07:58:43;99920.19;;;16.01;73.27
70841;BME280;58465;51.534;9.934;2022-10-16T08:01:11;99925.78;;;16.15;72.93
70841;BME280;58465;51.534;9.934;2022-10-16T08:03:38;99935.28;;;16.24;72.80
70841;BME280;58465;51.534;9.934;2022-10-16T08:06:04;99938.31;;;16.35;71.84
70841;BME280;58465;51.534;9.934;2022-10-16T08:08:30;99938.03;;;16.60;71.05
70841;BME280;58465;51.534;9.934;2022-10-16T08:10:55;99930.09;;;16.93;70.04
70841;BME280;58465;51.534;9.934;2022-10-16T08:13:21;99937.19;;;17.13;69.13
70841;BME280;58465;51.534;9.934;2022-10-16T08:15:46;99944.59;;;17.26;68.62
70841;BME280;58465;51.534;9.934;2022-10-16T08:18:13;99941.88;;;17.43;68.07
70841;BME280;58465;51.534;9.934;2022-10-16T08:20:40;99938.41;;;17.76;67.08
70841;BME280;58465;51.534;9.934;2022-10-16T08:23:06;99939.16;;;17.95;65.95
70841;BME280;58465;51.534;9.934;2022-10-16T08:25:34;99952.41;;;18.00;64.69
70841;BME280;58465;51.534;9.934;2022-10-16T08:28:00;99958.16;;;17.94;65.72
70841;BME280;58465;51.534;9.934;2022-10-16T08:30:25;99962.69;;;17.93;65.94
70841;BME280;58465;51.534;9.934;2022-10-16T08:32:51;99972.97;;;18.02;65.71
70841;BME280;58465;51.534;9.934;2022-10-16T08:35:16;99978.63;;;17.98;65.28
70841;BME280;58465;51.534;9.934;2022-10-16T08:37:42;99973.31;;;17.96;65.34
70841;BME280;58465;51.534;9.934;2022-10-16T08:40:17;99973.19;;;17.82;65.11
70841;BME280;58465;51.534;9.934;2022-10-16T08:45:34;99969.38;;;17.86;65.70
70841;BME280;58465;51.534;9.934;2022-10-16T08:48:13;99980.56;;;17.78;65.45
70841;BME280;58465;51.534;9.934;2022-10-16T08:50:40;99981.38;;;17.63;65.91
70841;BME280;58465;51.534;9.934;2022-10-16T08:53:07;99998.84;;;17.73;66.01
70841;BME280;58465;51.534;9.934;2022-10-16T08:56:02;99998.69;;;17.76;65.22
70841;BME280;58465;51.534;9.934;2022-10-16T08:58:29;99991.06;;;17.85;65.23
70841;BME280;58465;51.534;9.934;2022-10-16T09:01:00;99990.91;;;17.88;65.28
70841;BME280;58465;51.534;9.934;2022-10-16T09:06:45;99987.53;;;18.00;63.85
70841;BME280;58465;51.534;9.934;2022-10-16T09:10:01;100002.44;;;18.24;63.28
70841;BME280;58465;51.534;9.934;2022-10-16T09:12:53;100015.00;;;18.25;62.63
70841;BME280;58465;51.534;9.934;2022-10-16T09:15:47;100004.63;;;18.33;63.12
70841;BME280;58465;51.534;9.934;2022-10-16T09:18:26;100018.16;;;18.33;63.48
70841;BME280;58465;51.534;9.934;2022-10-16T09:21:05;100029.41;;;18.41;63.13
70841;BME280;58465;51.534;9.934;2022-10-16T09:23:35;100023.72;;;18.63;63.07
70841;BME280;58465;51.534;9.934;2022-10-16T09:26:02;100027.91;;;18.84;62.12
70841;BME280;58465;51.534;9.934;2022-10-16T09:28:29;100028.88;;;18.99;62.17
70841;BME280;58465;51.534;9.934;2022-10-16T09:30:54;100031.06;;;19.08;61.44
70841;BME280;58465;51.534;9.934;2022-10-16T09:33:23;100034.28;;;19.15;61.76
70841;BME280;58465;51.534;9.934;2022-10-16T09:35:52;100032.53;;;19.14;61.72
70841;BME280;58465;51.534;9.934;2022-10-16T09:40:55;100030.03;;;18.46;63.23
70841;BME280;58465;51.534;9.934;2022-10-16T09:43:24;100034.06;;;18.22;64.04
70841;BME280;58465;51.534;9.934;2022-10-16T09:45:57;100022.84;;;17.97;64.88
70841;BME280;58465;51.534;9.934;2022-10-16T09:48:25;100021.09;;;17.78;65.27
70841;BME280;58465;51.534;9.934;2022-10-16T09:51:02;100025.47;;;17.64;66.08
70841;BME280;58465;51.534;9.934;2022-10-16T09:53:40;100018.34;;;17.44;66.94
70841;BME280;58465;51.534;9.934;2022-10-16T09:56:06;100033.22;;;17.53;66.97
70841;BME280;58465;51.534;9.934;2022-10-16T09:58:32;100028.09;;;17.65;66.39
70841;BME280;58465;51.534;9.934;2022-10-16T10:00:58;100023.72;;;17.63;66.63
70841;BME280;58465;51.534;9.934;2022-10-16T10:03:34;100041.47;;;17.68;66.67
70841;BME280;58465;51.534;9.934;2022-10-16T10:06:06;100038.97;;;17.64;66.63
70841;BME280;58465;51.534;9.934;2022-10-16T10:08:39;100039.41;;;17.55;66.91
70841;BME280;58465;51.534;9.934;2022-10-16T10:11:04;100043.38;;;17.48;67.36
70841;BME280;58465;51.534;9.934;2022-10-16T10:13:30;100051.09;;;17.38;67.09
70841;BME280;58465;51.534;9.934;2022-10-16T10:15:55;100048.53;;;17.35;67.41
70841;BME280;58465;51.534;9.934;2022-10-16T10:18:22;100055.69;;;17.36;67.36
70841;BME280;58465;51.534;9.934;2022-10-16T10:21:02;100058.38;;;17.36;67.73
70841;BME280;58465;51.534;9.934;2022-10-16T10:23:29;100060.94;;;17.39;67.68
70841;BME280;58465;51.534;9.934;2022-10-16T10:26:16;100056.09;;;17.46;66.89
70841;BME280;58465;51.534;9.934;2022-10-16T10:28:54;100064.03;;;17.49;67.21
70841;BME280;58465;51.534;9.934;2022-10-16T10:34:03;100074.56;;;17.89;65.79
70841;BME280;58465;51.534;9.934;2022-10-16T10:36:38;100063.19;;;18.00;64.55
70841;BME280;58465;51.534;9.934;2022-10-16T10:39:23;100066.47;;;18.06;64.39
70841;BME280;58465;51.534;9.934;2022-10-16T10:50:05;100065.28;;;17.77;63.87
70841;BME280;58465;51.534;9.934;2022-10-16T10:52:59;100064.97;;;17.84;62.45
70841;BME280;58465;51.534;9.934;2022-10-16T10:55:43;100067.19;;;17.93;63.04
70841;BME280;58465;51.534;9.934;2022-10-16T11:06:33;100077.59;;;18.50;61.55
70841;BME280;58465;51.534;9.934;2022-10-16T11:09:09;100078.44;;;18.68;60.62
70841;BME280;58465;51.534;9.934;2022-10-16T11:14:36;100079.50;;;19.13;58.48
70841;BME280;58465;51.534;9.934;2022-10-16T11:20:05;100079.16;;;19.66;57.48
70841;BME280;58465;51.534;9.934;2022-10-16T11:22:39;100080.69;;;19.86;57.19
70841;BME280;58465;51.534;9.934;2022-10-16T11:25:18;100087.31;;;20.83;54.47
70841;BME280;58465;51.534;9.934;2022-10-16T11:28:10;100080.63;;;22.23;50.35
70841;BME280;58465;51.534;9.934;2022-10-16T11:31:07;100082.91;;;23.41;47.71
70841;BME280;58465;51.534;9.934;2022-10-16T11:33:58;100071.84;;;24.14;44.29
70841;BME280;58465;51.534;9.934;2022-10-16T11:36:33;100077.66;;;23.75;45.50
70841;BME280;58465;51.534;9.934;2022-10-16T11:39:08;100070.19;;;23.29;47.02
70841;BME280;58465;51.534;9.934;2022-10-16T11:41:50;100070.44;;;23.26;46.51
70841;BME280;58465;51.534;9.934;2022-10-16T11:44:42;100069.59;;;23.49;46.25
70841;BME280;58465;51.534;9.934;2022-10-16T11:49:51;100062.63;;;24.39;43.00
70841;BME280;58465;51.534;9.934;2022-10-16T11:52:26;100070.00;;;25.17;41.46
70841;BME280;58465;51.534;9.934;2022-10-16T11:54:57;100057.16;;;25.82;40.26
70841;BME280;58465;51.534;9.934;2022-10-16T11:57:26;100065.38;;;26.66;38.38
70841;BME280;58465;51.534;9.934;2022-10-16T11:59:58;100053.13;;;27.40;35.68
70841;BME280;58465;51.534;9.934;2022-10-16T12:02:28;100054.34;;;27.66;36.34
70841;BME280;58465;51.534;9.934;2022-10-16T12:05:18;100052.75;;;27.74;35.25
70841;BME280;58465;51.534;9.934;2022-10-16T12:07:49;100044.50;;;28.12;34.66
70841;BME280;58465;51.534;9.934;2022-10-16T12:10:25;100047.00;;;28.71;34.24
70841;BME280;58465;51.534;9.934;2022-10-16T12:12:51;100051.94;;;28.68;33.90
70841;BME280;58465;51.534;9.934;2022-10-16T12:15:26;100046.94;;;27.38;35.90
70841;BME280;58465;51.534;9.934;2022-10-16T12:17:52;100051.19;;;25.77;38.57
70841;BME280;58465;51.534;9.934;2022-10-16T12:22:54;100058.28;;;23.66;42.48
70841;BME280;58465;51.534;9.934;2022-10-16T12:25:26;100063.59;;;23.44;43.66
70841;BME280;58465;51.534;9.934;2022-10-16T12:28:04;100051.19;;;23.16;43.50
70841;BME280;58465;51.534;9.934;2022-10-16T12:30:33;100056.88;;;22.88;44.10
70841;BME280;58465;51.534;9.934;2022-10-16T12:33:05;100053.09;;;22.40;45.33
70841;BME280;58465;51.534;9.934;2022-10-16T12:35:35;100041.91;;;22.19;45.53
70841;BME280;58465;51.534;9.934;2022-10-16T12:38:22;100062.81;;;21.92;45.44
70841;BME280;58465;51.534;9.934;2022-10-16T12:41:08;100051.59;;;21.83;44.70
70841;BME280;58465;51.534;9.934;2022-10-16T12:48:53;100052.13;;;21.76;44.95
70841;BME280;58465;51.534;9.934;2022-10-16T12:51:24;100056.72;;;21.88;44.67
70841;BME280;58465;51.534;9.934;2022-10-16T12:56:43;100066.31;;;21.94;44.04
70841;BME280;58465;51.534;9.934;2022-10-16T13:11:12;100067.41;;;21.52;44.26
70841;BME280;58465;51.534;9.934;2022-10-16T13:16:23;100075.22;;;21.29;45.24
70841;BME280;58465;51.534;9.934;2022-10-16T13:19:34;100085.13;;;21.30;45.08
70841;BME280;58465;51.534;9.934;2022-10-16T13:30:21;100096.78;;;21.18;45.70
70841;BME280;58465;51.534;9.934;2022-10-16T13:32:50;100099.38;;;21.05;46.67
70841;BME280;58465;51.534;9.934;2022-10-16T13:35:27;100094.75;;;21.07;46.83
70841;BME280;58465;51.534;9.934;2022-10-16T13:40:52;100106.22;;;20.84;47.85
70841;BME280;58465;51.534;9.934;2022-10-16T13:43:19;100107.47;;;20.79;48.37
70841;BME280;58465;51.534;9.934;2022-10-16T13:46:06;100101.38;;;20.61;48.75
70841;BME280;58465;51.534;9.934;2022-10-16T13:48:33;100101.72;;;20.41;49.20
70841;BME280;58465;51.534;9.934;2022-10-16T13:53:33;100100.97;;;20.09;50.28
70841;BME280;58465;51.534;9.934;2022-10-16T13:56:03;100106.84;;;20.01;50.79
70841;BME280;58465;51.534;9.934;2022-10-16T13:58:29;100103.00;;;20.05;50.42
70841;BME280;58465;51.534;9.934;2022-10-16T14:01:02;100108.13;;;20.10;50.66
70841;BME280;58465;51.534;9.934;2022-10-16T14:03:29;100118.22;;;20.22;50.60
70841;BME280;58465;51.534;9.934;2022-10-16T14:06:00;100117.75;;;20.45;50.18
70841;BME280;58465;51.534;9.934;2022-10-16T14:08:28;100125.69;;;20.62;49.82
70841;BME280;58465;51.534;9.934;2022-10-16T14:10:56;100115.59;;;20.79;49.43
70841;BME280;58465;51.534;9.934;2022-10-16T14:13:34;100131.91;;;20.79;49.51
70841;BME280;58465;51.534;9.934;2022-10-16T14:16:06;100133.25;;;20.86;49.15
70841;BME280;58465;51.534;9.934;2022-10-16T14:18:31;100141.03;;;20.92;48.81
70841;BME280;58465;51.534;9.934;2022-10-16T14:21:03;100129.00;;;20.82;49.07
70841;BME280;58465;51.534;9.934;2022-10-16T14:23:32;100126.25;;;20.67;49.57
70841;BME280;58465;51.534;9.934;2022-10-16T14:28:33;100124.56;;;20.66;49.70
70841;BME280;58465;51.534;9.934;2022-10-16T14:31:01;100134.31;;;20.69;49.92
70841;BME280;58465;51.534;9.934;2022-10-16T14:36:05;100142.25;;;20.58;50.12
70841;BME280;58465;51.534;9.934;2022-10-16T14:38:31;100132.28;;;20.58;50.33